sensor_id;sensor_type;location;lat;lon;timestamp;noise_LAeq;noise_LA_min;noise_LA_max;noise_LA01;noise_LA95
77133;Laerm;26708;50.304;19.028;2023-05-23T00:01:48;41.08;38.77;47.71;;
77133;Laerm;26708;50.304;19.028;2023-05-23T00:04:10;40.63;37.52;44.26;;
77133;Laerm;26708;50.304;19.028;2023-05-23T00:06:35;41.10;38.50;43.50;;
77133;Laerm;26708;50.304;19.028;2023-05-23T00:08:56;41.60;39.55;43.91;;
77133;Laerm;26708;50.304;19.028;2023-05-23T00:11:16;44.09;39.78;51.11;;
77133;Laerm;26708;50.304;19.028;2023-05-23T00:13:35;42.57;39.86;49.69;;
77133;Laerm;26708;50.304;19.028;2023-05-23T00:15:55;41.71;39.25;45.24;;
77133;Laerm;26708;50.304;19.028;2023-05-23T00:18:14;42.05;39.43;47.00;;
77133;Laerm;26708;50.304;19.028;2023-05-23T00:20:35;42.37;39.92;47.16;;
77133;Laerm;26708;50.304;19.028;2023-05-23T00:22:58;41.55;39.53;45.65;;
77133;Laerm;26708;50.304;19.028;2023-05-23T00:25:18;41.40;38.71;46.78;;
77133;Laerm;26708;50.304;19.028;2023-05-23T00:27:24;41.65;39.14;44.95;;
77133;Laerm;26708;50.304;19.028;2023-05-23T00:29:29;41.62;39.56;44.24;;
77133;Laerm;26708;50.304;19.028;2023-05-23T00:31:33;42.31;39.93;49.76;;
77133;Laerm;26708;50.304;19.028;2023-05-23T00:33:39;48.90;40.43;65.30;;
77133;Laerm;26708;50.304;19.028;2023-05-23T00:35:43;41.92;39.15;46.29;;
77133;Laerm;26708;50.304;19.028;2023-05-23T00:37:50;41.55;39.11;44.69;;
77133;Laerm;26708;50.304;19.028;2023-05-23T00:39:59;41.78;39.31;45.43;;
77133;Laerm;26708;50.304;19.028;2023-05-23T00:42:05;43.34;40.21;55.95;;
77133;Laerm;26708;50.304;19.028;2023-05-23T00:44:11;42.01;39.36;47.98;;
77133;Laerm;26708;50.304;19.028;2023-05-23T00:46:16;41.81;39.39;46.52;;
77133;Laerm;26708;50.304;19.028;2023-05-23T00:48:20;41.45;39.42;43.82;;
77133;Laerm;26708;50.304;19.028;2023-05-23T00:50:28;41.71;39.60;48.17;;
77133;Laerm;26708;50.304;19.028;2023-05-23T00:52:49;42.14;39.74;45.93;;
77133;Laerm;26708;50.304;19.028;2023-05-23T00:55:12;43.92;40.33;50.44;;
77133;Laerm;26708;50.304;19.028;2023-05-23T00:57:32;42.74;38.81;46.11;;
77133;Laerm;26708;50.304;19.028;2023-05-23T00:59:56;41.59;38.91;48.21;;
77133;Laerm;26708;50.304;19.028;2023-05-23T01:02:15;41.46;38.93;46.85;;
77133;Laerm;26708;50.304;19.028;2023-05-23T01:04:37;41.66;39.29;44.51;;
77133;Laerm;26708;50.304;19.028;2023-05-23T01:06:57;48.40;39.63;66.12;;
77133;Laerm;26708;50.304;19.028;2023-05-23T01:09:18;43.72;40.31;52.08;;
77133;Laerm;26708;50.304;19.028;2023-05-23T01:11:36;46.05;39.56;60.48;;
77133;Laerm;26708;50.304;19.028;2023-05-23T01:13:58;45.17;40.54;61.64;;
77133;Laerm;26708;50.304;19.028;2023-05-23T01:16:10;42.75;39.76;47.01;;
77133;Laerm;26708;50.304;19.028;2023-05-23T01:18:26;42.93;39.77;50.91;;
77133;Laerm;26708;50.304;19.028;2023-05-23T01:20:38;41.89;39.32;47.53;;
77133;Laerm;26708;50.304;19.028;2023-05-23T01:23:12;41.35;38.77;46.78;;
77133;Laerm;26708;50.304;19.028;2023-05-23T01:25:43;41.86;39.26;46.63;;
77133;Laerm;26708;50.304;19.028;2023-05-23T01:27:57;41.84;39.25;45.06;;
77133;Laerm;26708;50.304;19.028;2023-05-23T01:30:22;50.33;39.85;68.99;;
77133;Laerm;26708;50.304;19.028;2023-05-23T01:32:44;41.72;38.88;45.56;;
77133;Laerm;26708;50.304;19.028;2023-05-23T01:35:06;41.17;38.83;44.17;;
77133;Laerm;26708;50.304;19.028;2023-05-23T01:37:26;41.82;38.99;45.31;;
77133;Laerm;26708;50.304;19.028;2023-05-23T01:39:46;41.73;39.93;44.03;;
77133;Laerm;26708;50.304;19.028;2023-05-23T01:42:08;42.61;39.07;49.91;;
77133;Laerm;26708;50.304;19.028;2023-05-23T01:44:33;41.77;38.86;46.50;;
77133;Laerm;26708;50.304;19.028;2023-05-23T01:46:39;41.28;38.94;44.00;;
77133;Laerm;26708;50.304;19.028;2023-05-23T01:48:46;42.18;39.20;49.11;;
77133;Laerm;26708;50.304;19.028;2023-05-23T01:50:52;42.30;39.92;46.93;;
77133;Laerm;26708;50.304;19.028;2023-05-23T01:52:59;42.42;40.17;45.97;;
77133;Laerm;26708;50.304;19.028;2023-05-23T01:55:07;42.83;39.62;47.95;;
77133;Laerm;26708;50.304;19.028;2023-05-23T01:57:14;44.66;39.88;55.14;;
77133;Laerm;26708;50.304;19.028;2023-05-23T01:59:20;44.97;39.77;54.40;;
77133;Laerm;26708;50.304;19.028;2023-05-23T02:01:27;44.56;40.44;53.67;;
77133;Laerm;26708;50.304;19.028;2023-05-23T02:03:34;44.12;40.99;51.47;;
77133;Laerm;26708;50.304;19.028;2023-05-23T02:05:40;43.13;40.14;48.14;;
77133;Laerm;26708;50.304;19.028;2023-05-23T02:07:44;42.94;40.12;47.57;;
77133;Laerm;26708;50.304;19.028;2023-05-23T02:10:08;43.05;40.11;49.82;;
77133;Laerm;26708;50.304;19.028;2023-05-23T02:12:28;51.06;40.18;66.13;;
77133;Laerm;26708;50.304;19.028;2023-05-23T02:14:49;45.05;41.16;53.14;;
77133;Laerm;26708;50.304;19.028;2023-05-23T02:17:11;50.47;40.84;67.90;;
77133;Laerm;26708;50.304;19.028;2023-05-23T02:19:32;48.11;39.85;64.58;;
77133;Laerm;26708;50.304;19.028;2023-05-23T02:21:51;42.53;39.52;46.23;;
77133;Laerm;26708;50.304;19.028;2023-05-23T02:24:11;43.38;40.64;56.16;;
77133;Laerm;26708;50.304;19.028;2023-05-23T02:26:30;49.62;40.33;67.91;;
77133;Laerm;26708;50.304;19.028;2023-05-23T02:28:49;54.27;40.57;71.71;;
77133;Laerm;26708;50.304;19.028;2023-05-23T02:31:10;43.90;40.28;52.99;;
77133;Laerm;26708;50.304;19.028;2023-05-23T02:33:32;44.02;40.22;51.78;;
77133;Laerm;26708;50.304;19.028;2023-05-23T02:35:52;46.83;41.90;58.26;;
77133;Laerm;26708;50.304;19.028;2023-05-23T02:38:11;45.59;41.09;58.23;;
77133;Laerm;26708;50.304;19.028;2023-05-23T02:40:31;45.05;40.97;58.89;;
77133;Laerm;26708;50.304;19.028;2023-05-23T02:42:51;46.91;41.21;58.71;;
77133;Laerm;26708;50.304;19.028;2023-05-23T02:45:13;44.33;39.99;56.37;;
77133;Laerm;26708;50.304;19.028;2023-05-23T02:47:32;45.85;40.43;63.44;;
77133;Laerm;26708;50.304;19.028;2023-05-23T02:49:42;47.44;41.17;58.84;;
77133;Laerm;26708;50.304;19.028;2023-05-23T02:51:47;45.40;40.91;58.57;;
77133;Laerm;26708;50.304;19.028;2023-05-23T02:53:51;52.79;40.64;67.57;;
77133;Laerm;26708;50.304;19.028;2023-05-23T02:55:57;45.03;41.22;58.02;;
77133;Laerm;26708;50.304;19.028;2023-05-23T02:58:02;46.04;41.01;55.29;;
77133;Laerm;26708;50.304;19.028;2023-05-23T03:00:09;45.04;41.02;61.74;;
77133;Laerm;26708;50.304;19.028;2023-05-23T03:02:16;47.47;41.32;61.18;;
77133;Laerm;26708;50.304;19.028;2023-05-23T03:04:20;43.95;41.12;49.45;;
77133;Laerm;26708;50.304;19.028;2023-05-23T03:06:27;45.11;41.26;50.09;;
77133;Laerm;26708;50.304;19.028;2023-05-23T03:08:33;44.44;40.88;52.48;;
77133;Laerm;26708;50.304;19.028;2023-05-23T03:10:38;45.12;40.71;53.01;;
77133;Laerm;26708;50.304;19.028;2023-05-23T03:12:42;45.31;41.71;50.82;;
77133;Laerm;26708;50.304;19.028;2023-05-23T03:14:49;50.53;43.05;67.74;;
77133;Laerm;26708;50.304;19.028;2023-05-23T03:16:54;53.11;42.04;71.08;;
77133;Laerm;26708;50.304;19.028;2023-05-23T03:18:59;50.03;41.50;63.27;;
77133;Laerm;26708;50.304;19.028;2023-05-23T03:21:05;44.25;40.58;52.51;;
77133;Laerm;26708;50.304;19.028;2023-05-23T03:23:13;53.42;41.85;66.83;;
77133;Laerm;26708;50.304;19.028;2023-05-23T03:25:19;51.46;41.81;65.01;;
77133;Laerm;26708;50.304;19.028;2023-05-23T03:27:24;46.35;41.08;57.79;;
77133;Laerm;26708;50.304;19.028;2023-05-23T03:29:30;54.75;41.98;71.36;;
77133;Laerm;26708;50.304;19.028;2023-05-23T03:31:34;54.31;41.26;66.17;;
77133;Laerm;26708;50.304;19.028;2023-05-23T03:33:40;53.96;41.88;72.15;;
77133;Laerm;26708;50.304;19.028;2023-05-23T03:35:45;51.28;42.32;68.43;;
77133;Laerm;26708;50.304;19.028;2023-05-23T03:37:49;52.88;42.62;65.76;;
77133;Laerm;26708;50.304;19.028;2023-05-23T03:39:57;52.39;42.58;67.82;;
77133;Laerm;26708;50.304;19.028;2023-05-23T03:42:03;52.93;42.15;70.05;;
77133;Laerm;26708;50.304;19.028;2023-05-23T03:44:08;55.37;42.76;69.85;;
77133;Laerm;26708;50.304;19.028;2023-05-23T03:46:14;51.70;41.35;68.40;;
77133;Laerm;26708;50.304;19.028;2023-05-23T03:48:18;48.83;42.35;66.05;;
77133;Laerm;26708;50.304;19.028;2023-05-23T03:50:24;47.22;42.32;59.55;;
77133;Laerm;26708;50.304;19.028;2023-05-23T03:52:29;54.40;41.09;73.10;;
77133;Laerm;26708;50.304;19.028;2023-05-23T03:54:35;45.37;41.80;55.84;;
77133;Laerm;26708;50.304;19.028;2023-05-23T03:56:42;54.64;42.02;70.40;;
77133;Laerm;26708;50.304;19.028;2023-05-23T03:58:48;54.98;42.85;68.16;;
77133;Laerm;26708;50.304;19.028;2023-05-23T04:00:52;49.87;41.25;66.97;;
77133;Laerm;26708;50.304;19.028;2023-05-23T04:02:57;48.22;41.59;63.35;;
77133;Laerm;26708;50.304;19.028;2023-05-23T04:05:03;55.10;43.13;72.59;;
77133;Laerm;26708;50.304;19.028;2023-05-23T04:07:07;46.72;42.02;59.60;;
77133;Laerm;26708;50.304;19.028;2023-05-23T04:09:13;53.86;42.89;70.26;;
77133;Laerm;26708;50.304;19.028;2023-05-23T04:11:21;54.88;41.25;69.63;;
77133;Laerm;26708;50.304;19.028;2023-05-23T04:13:29;55.15;42.33;72.18;;
77133;Laerm;26708;50.304;19.028;2023-05-23T04:15:49;52.96;42.19;67.01;;
77133;Laerm;26708;50.304;19.028;2023-05-23T04:18:12;56.57;42.95;74.13;;
77133;Laerm;26708;50.304;19.028;2023-05-23T04:20:33;56.12;42.65;70.31;;
77133;Laerm;26708;50.304;19.028;2023-05-23T04:22:53;51.47;43.06;65.11;;
77133;Laerm;26708;50.304;19.028;2023-05-23T04:25:14;55.80;42.33;70.72;;
77133;Laerm;26708;50.304;19.028;2023-05-23T04:27:43;55.06;42.65;69.16;;
77133;Laerm;26708;50.304;19.028;2023-05-23T04:30:08;55.17;42.57;70.31;;
77133;Laerm;26708;50.304;19.028;2023-05-23T04:32:30;57.23;44.33;71.35;;
77133;Laerm;26708;50.304;19.028;2023-05-23T04:34:50;58.72;43.32;72.43;;
77133;Laerm;26708;50.304;19.028;2023-05-23T04:37:09;57.61;45.30;70.33;;
77133;Laerm;26708;50.304;19.028;2023-05-23T04:39:30;58.10;44.17;69.56;;
77133;Laerm;26708;50.304;19.028;2023-05-23T04:42:08;55.99;44.03;72.10;;
77133;Laerm;26708;50.304;19.028;2023-05-23T04:44:38;57.11;44.11;71.32;;
77133;Laerm;26708;50.304;19.028;2023-05-23T04:47:06;71.64;45.58;99.89;;
77133;Laerm;26708;50.304;19.028;2023-05-23T04:49:59;57.49;46.29;68.98;;
77133;Laerm;26708;50.304;19.028;2023-05-23T04:52:20;60.39;49.00;71.53;;
77133;Laerm;26708;50.304;19.028;2023-05-23T04:54:41;57.23;49.10;69.34;;
77133;Laerm;26708;50.304;19.028;2023-05-23T04:57:02;56.53;46.55;66.43;;
77133;Laerm;26708;50.304;19.028;2023-05-23T04:59:23;55.84;44.93;72.78;;
77133;Laerm;26708;50.304;19.028;2023-05-23T05:01:42;67.02;50.91;80.21;;
77133;Laerm;26708;50.304;19.028;2023-05-23T05:04:06;59.47;49.26;68.77;;
77133;Laerm;26708;50.304;19.028;2023-05-23T05:06:25;54.44;44.38;69.20;;
77133;Laerm;26708;50.304;19.028;2023-05-23T05:08:45;57.71;45.38;75.52;;
77133;Laerm;26708;50.304;19.028;2023-05-23T05:11:05;54.84;46.75;69.61;;
77133;Laerm;26708;50.304;19.028;2023-05-23T05:13:24;57.72;47.31;70.63;;
77133;Laerm;26708;50.304;19.028;2023-05-23T05:15:45;58.32;47.94;68.99;;
77133;Laerm;26708;50.304;19.028;2023-05-23T05:18:06;56.96;48.35;69.72;;
77133;Laerm;26708;50.304;19.028;2023-05-23T05:20:30;55.96;47.23;66.99;;
77133;Laerm;26708;50.304;19.028;2023-05-23T05:22:55;57.11;47.80;67.12;;
77133;Laerm;26708;50.304;19.028;2023-05-23T05:25:15;57.16;49.42;71.66;;
77133;Laerm;26708;50.304;19.028;2023-05-23T05:27:35;54.75;49.56;65.98;;
77133;Laerm;26708;50.304;19.028;2023-05-23T05:29:43;56.92;49.11;67.13;;
77133;Laerm;26708;50.304;19.028;2023-05-23T05:31:48;59.53;49.80;70.91;;
77133;Laerm;26708;50.304;19.028;2023-05-23T05:33:53;63.49;49.96;81.04;;
77133;Laerm;26708;50.304;19.028;2023-05-23T05:36:02;58.74;49.44;74.16;;
77133;Laerm;26708;50.304;19.028;2023-05-23T05:38:07;55.96;49.81;66.04;;
77133;Laerm;26708;50.304;19.028;2023-05-23T05:40:13;59.95;49.93;70.19;;
77133;Laerm;26708;50.304;19.028;2023-05-23T05:42:19;57.97;49.26;68.71;;
77133;Laerm;26708;50.304;19.028;2023-05-23T05:44:24;58.58;49.12;72.25;;
77133;Laerm;26708;50.304;19.028;2023-05-23T05:46:28;58.31;50.18;69.14;;
77133;Laerm;26708;50.304;19.028;2023-05-23T05:48:48;56.95;46.72;66.71;;
77133;Laerm;26708;50.304;19.028;2023-05-23T05:51:11;58.95;46.95;70.23;;
77133;Laerm;26708;50.304;19.028;2023-05-23T05:53:31;58.66;46.44;69.17;;
77133;Laerm;26708;50.304;19.028;2023-05-23T05:55:53;56.66;46.74;66.82;;
77133;Laerm;26708;50.304;19.028;2023-05-23T05:58:13;61.49;47.15;80.11;;
77133;Laerm;26708;50.304;19.028;2023-05-23T06:00:54;57.26;46.97;71.58;;
77133;Laerm;26708;50.304;19.028;2023-05-23T06:03:15;58.75;47.60;69.36;;
77133;Laerm;26708;50.304;19.028;2023-05-23T06:05:41;57.94;46.36;68.82;;
77133;Laerm;26708;50.304;19.028;2023-05-23T06:08:02;59.11;46.74;71.90;;
77133;Laerm;26708;50.304;19.028;2023-05-23T06:10:08;56.84;48.07;67.27;;
77133;Laerm;26708;50.304;19.028;2023-05-23T06:12:13;58.03;48.28;73.76;;
77133;Laerm;26708;50.304;19.028;2023-05-23T06:14:19;57.20;48.93;68.81;;
77133;Laerm;26708;50.304;19.028;2023-05-23T06:16:23;56.42;47.74;67.99;;
77133;Laerm;26708;50.304;19.028;2023-05-23T06:18:28;58.38;48.11;69.73;;
77133;Laerm;26708;50.304;19.028;2023-05-23T06:20:33;59.85;51.36;74.24;;
77133;Laerm;26708;50.304;19.028;2023-05-23T06:22:41;57.72;51.60;65.85;;
77133;Laerm;26708;50.304;19.028;2023-05-23T06:24:48;59.95;50.74;70.61;;
77133;Laerm;26708;50.304;19.028;2023-05-23T06:27:07;54.43;44.72;64.89;;
77133;Laerm;26708;50.304;19.028;2023-05-23T06:29:27;56.99;44.79;67.73;;
77133;Laerm;26708;50.304;19.028;2023-05-23T06:31:46;55.81;45.79;65.79;;
77133;Laerm;26708;50.304;19.028;2023-05-23T06:34:06;56.96;44.41;69.26;;
77133;Laerm;26708;50.304;19.028;2023-05-23T06:36:25;57.80;44.74;74.58;;
77133;Laerm;26708;50.304;19.028;2023-05-23T06:38:46;62.87;45.56;83.59;;
77133;Laerm;26708;50.304;19.028;2023-05-23T06:41:08;57.43;45.52;70.12;;
77133;Laerm;26708;50.304;19.028;2023-05-23T06:43:27;57.32;45.54;68.88;;
77133;Laerm;26708;50.304;19.028;2023-05-23T06:46:02;57.35;45.42;67.75;;
77133;Laerm;26708;50.304;19.028;2023-05-23T06:48:07;55.56;45.54;64.37;;
77133;Laerm;26708;50.304;19.028;2023-05-23T06:50:12;59.34;46.45;71.50;;
77133;Laerm;26708;50.304;19.028;2023-05-23T06:52:21;58.19;44.67;67.92;;
77133;Laerm;26708;50.304;19.028;2023-05-23T06:54:26;59.63;44.77;71.50;;
77133;Laerm;26708;50.304;19.028;2023-05-23T06:56:33;56.86;44.48;70.07;;
77133;Laerm;26708;50.304;19.028;2023-05-23T06:58:40;57.74;45.41;69.28;;
77133;Laerm;26708;50.304;19.028;2023-05-23T07:00:45;58.29;44.33;70.82;;
77133;Laerm;26708;50.304;19.028;2023-05-23T07:03:01;55.53;45.75;68.33;;
77133;Laerm;26708;50.304;19.028;2023-05-23T07:05:07;56.97;45.75;70.31;;
77133;Laerm;26708;50.304;19.028;2023-05-23T07:07:20;58.15;45.54;70.40;;
77133;Laerm;26708;50.304;19.028;2023-05-23T07:09:25;58.69;44.57;69.75;;
77133;Laerm;26708;50.304;19.028;2023-05-23T07:11:44;57.76;45.06;69.20;;
77133;Laerm;26708;50.304;19.028;2023-05-23T07:13:50;58.17;46.04;67.55;;
77133;Laerm;26708;50.304;19.028;2023-05-23T07:16:16;58.79;44.82;71.89;;
77133;Laerm;26708;50.304;19.028;2023-05-23T07:18:32;55.33;44.74;67.65;;
77133;Laerm;26708;50.304;19.028;2023-05-23T07:20:37;55.01;44.72;66.56;;
77133;Laerm;26708;50.304;19.028;2023-05-23T07:22:51;57.44;44.98;70.69;;
77133;Laerm;26708;50.304;19.028;2023-05-23T07:24:57;56.72;44.63;68.95;;
77133;Laerm;26708;50.304;19.028;2023-05-23T07:27:08;56.12;44.71;68.86;;
77133;Laerm;26708;50.304;19.028;2023-05-23T07:29:14;56.43;45.95;69.51;;
77133;Laerm;26708;50.304;19.028;2023-05-23T07:31:21;57.23;44.62;70.02;;
77133;Laerm;26708;50.304;19.028;2023-05-23T07:33:28;56.60;45.70;68.30;;
77133;Laerm;26708;50.304;19.028;2023-05-23T07:35:37;57.66;44.17;71.67;;
77133;Laerm;26708;50.304;19.028;2023-05-23T07:37:43;53.47;44.59;71.42;;
77133;Laerm;26708;50.304;19.028;2023-05-23T07:39:48;56.73;44.70;69.02;;
77133;Laerm;26708;50.304;19.028;2023-05-23T07:41:53;56.66;44.38;67.22;;
77133;Laerm;26708;50.304;19.028;2023-05-23T07:44:01;56.34;44.38;66.85;;
77133;Laerm;26708;50.304;19.028;2023-05-23T07:46:05;57.27;45.42;66.72;;
77133;Laerm;26708;50.304;19.028;2023-05-23T07:48:11;56.17;44.31;66.04;;
77133;Laerm;26708;50.304;19.028;2023-05-23T07:50:17;56.67;44.31;67.62;;
77133;Laerm;26708;50.304;19.028;2023-05-23T07:52:23;55.51;44.79;67.12;;
77133;Laerm;26708;50.304;19.028;2023-05-23T07:54:28;54.90;43.58;68.01;;
77133;Laerm;26708;50.304;19.028;2023-05-23T07:56:38;58.10;43.99;69.71;;
77133;Laerm;26708;50.304;19.028;2023-05-23T07:58:42;57.24;44.53;67.12;;
77133;Laerm;26708;50.304;19.028;2023-05-23T08:00:49;53.67;44.27;65.36;;
77133;Laerm;26708;50.304;19.028;2023-05-23T08:03:15;56.54;44.05;69.53;;
77133;Laerm;26708;50.304;19.028;2023-05-23T08:05:31;58.88;46.66;69.58;;
77133;Laerm;26708;50.304;19.028;2023-05-23T08:07:36;54.94;44.70;64.64;;
77133;Laerm;26708;50.304;19.028;2023-05-23T08:09:41;55.71;44.51;67.59;;
77133;Laerm;26708;50.304;19.028;2023-05-23T08:11:49;56.62;44.53;69.55;;
77133;Laerm;26708;50.304;19.028;2023-05-23T08:13:55;57.92;45.26;67.96;;
77133;Laerm;26708;50.304;19.028;2023-05-23T08:16:15;58.56;45.72;70.45;;
77133;Laerm;26708;50.304;19.028;2023-05-23T08:18:20;56.82;44.67;71.18;;
77133;Laerm;26708;50.304;19.028;2023-05-23T08:20:25;57.80;45.09;67.48;;
77133;Laerm;26708;50.304;19.028;2023-05-23T08:22:32;54.72;43.42;67.90;;
77133;Laerm;26708;50.304;19.028;2023-05-23T08:24:38;58.61;44.85;67.83;;
77133;Laerm;26708;50.304;19.028;2023-05-23T08:26:42;55.66;44.62;71.21;;
77133;Laerm;26708;50.304;19.028;2023-05-23T08:28:49;55.60;44.93;66.94;;
77133;Laerm;26708;50.304;19.028;2023-05-23T08:30:54;57.17;44.00;69.32;;
77133;Laerm;26708;50.304;19.028;2023-05-23T08:33:04;57.01;44.98;73.15;;
77133;Laerm;26708;50.304;19.028;2023-05-23T08:35:10;56.56;44.62;68.93;;
77133;Laerm;26708;50.304;19.028;2023-05-23T08:37:31;58.58;45.32;68.30;;
77133;Laerm;26708;50.304;19.028;2023-05-23T08:39:50;55.79;44.68;68.28;;
77133;Laerm;26708;50.304;19.028;2023-05-23T08:42:25;56.03;44.71;69.43;;
77133;Laerm;26708;50.304;19.028;2023-05-23T08:44:45;57.73;45.01;68.13;;
77133;Laerm;26708;50.304;19.028;2023-05-23T08:47:07;57.25;45.22;66.93;;
77133;Laerm;26708;50.304;19.028;2023-05-23T08:49:39;55.41;46.08;67.55;;
77133;Laerm;26708;50.304;19.028;2023-05-23T08:51:46;56.01;45.53;67.12;;
77133;Laerm;26708;50.304;19.028;2023-05-23T08:53:57;57.58;44.37;67.26;;
77133;Laerm;26708;50.304;19.028;2023-05-23T08:56:05;55.78;44.11;68.67;;
77133;Laerm;26708;50.304;19.028;2023-05-23T08:58:18;58.34;45.16;69.33;;
77133;Laerm;26708;50.304;19.028;2023-05-23T09:00:32;55.50;44.74;67.05;;
77133;Laerm;26708;50.304;19.028;2023-05-23T09:02:38;60.48;45.01;73.64;;
77133;Laerm;26708;50.304;19.028;2023-05-23T09:04:58;56.31;43.87;69.90;;
77133;Laerm;26708;50.304;19.028;2023-05-23T09:07:04;58.33;45.13;69.20;;
77133;Laerm;26708;50.304;19.028;2023-05-23T09:09:10;57.29;45.89;68.43;;
77133;Laerm;26708;50.304;19.028;2023-05-23T09:11:17;54.57;43.84;64.82;;
77133;Laerm;26708;50.304;19.028;2023-05-23T09:13:23;60.89;44.24;84.36;;
77133;Laerm;26708;50.304;19.028;2023-05-23T09:15:29;59.59;46.05;69.10;;
77133;Laerm;26708;50.304;19.028;2023-05-23T09:17:45;56.89;45.08;74.85;;
77133;Laerm;26708;50.304;19.028;2023-05-23T09:19:49;59.73;46.50;75.81;;
77133;Laerm;26708;50.304;19.028;2023-05-23T09:22:05;55.21;44.84;67.18;;
77133;Laerm;26708;50.304;19.028;2023-05-23T09:24:18;59.86;44.78;79.29;;
77133;Laerm;26708;50.304;19.028;2023-05-23T09:26:23;56.45;44.52;67.83;;
77133;Laerm;26708;50.304;19.028;2023-05-23T09:28:32;55.43;45.04;69.40;;
77133;Laerm;26708;50.304;19.028;2023-05-23T09:30:57;56.87;45.45;73.34;;
77133;Laerm;26708;50.304;19.028;2023-05-23T09:33:03;59.20;45.31;76.29;;
77133;Laerm;26708;50.304;19.028;2023-05-23T09:35:09;56.18;44.77;67.41;;
77133;Laerm;26708;50.304;19.028;2023-05-23T09:37:18;62.23;46.05;80.18;;
77133;Laerm;26708;50.304;19.028;2023-05-23T09:39:25;56.93;44.76;72.09;;
77133;Laerm;26708;50.304;19.028;2023-05-23T09:41:47;57.97;45.51;70.57;;
77133;Laerm;26708;50.304;19.028;2023-05-23T09:43:54;53.57;44.68;67.38;;
77133;Laerm;26708;50.304;19.028;2023-05-23T09:46:06;54.16;44.26;65.09;;
77133;Laerm;26708;50.304;19.028;2023-05-23T09:48:11;57.08;44.27;69.36;;
77133;Laerm;26708;50.304;19.028;2023-05-23T09:50:17;55.00;44.89;70.10;;
77133;Laerm;26708;50.304;19.028;2023-05-23T09:52:25;53.25;44.22;67.45;;
77133;Laerm;26708;50.304;19.028;2023-05-23T09:54:30;54.06;43.74;64.87;;
77133;Laerm;26708;50.304;19.028;2023-05-23T09:56:40;56.03;44.25;69.72;;
77133;Laerm;26708;50.304;19.028;2023-05-23T09:58:48;53.53;43.70;68.71;;
77133;Laerm;26708;50.304;19.028;2023-05-23T10:00:55;59.02;45.00;69.13;;
77133;Laerm;26708;50.304;19.028;2023-05-23T10:03:10;59.39;47.27;67.37;;
77133;Laerm;26708;50.304;19.028;2023-05-23T10:05:32;57.02;44.43;68.47;;
77133;Laerm;26708;50.304;19.028;2023-05-23T10:07:40;56.20;44.19;66.46;;
77133;Laerm;26708;50.304;19.028;2023-05-23T10:09:57;60.74;44.71;91.08;;
77133;Laerm;26708;50.304;19.028;2023-05-23T10:12:40;56.68;44.18;70.45;;
77133;Laerm;26708;50.304;19.028;2023-05-23T10:14:54;56.70;44.59;67.34;;
77133;Laerm;26708;50.304;19.028;2023-05-23T10:17:11;59.19;44.37;84.60;;
77133;Laerm;26708;50.304;19.028;2023-05-23T10:19:24;56.38;44.04;66.76;;
77133;Laerm;26708;50.304;19.028;2023-05-23T10:21:37;55.35;43.81;69.16;;
77133;Laerm;26708;50.304;19.028;2023-05-23T10:23:48;54.25;44.44;64.95;;
77133;Laerm;26708;50.304;19.028;2023-05-23T10:25:54;57.62;43.95;73.85;;
77133;Laerm;26708;50.304;19.028;2023-05-23T10:27:59;54.71;43.76;68.60;;
77133;Laerm;26708;50.304;19.028;2023-05-23T10:30:05;57.10;43.80;68.08;;
77133;Laerm;26708;50.304;19.028;2023-05-23T10:32:13;55.87;44.18;66.21;;
77133;Laerm;26708;50.304;19.028;2023-05-23T10:34:29;55.51;43.13;68.54;;
77133;Laerm;26708;50.304;19.028;2023-05-23T10:36:49;54.94;43.01;69.64;;
77133;Laerm;26708;50.304;19.028;2023-05-23T10:39:08;53.98;44.13;68.93;;
77133;Laerm;26708;50.304;19.028;2023-05-23T10:41:27;55.14;45.47;67.44;;
77133;Laerm;26708;50.304;19.028;2023-05-23T10:43:48;54.41;44.29;68.74;;
77133;Laerm;26708;50.304;19.028;2023-05-23T10:45:56;57.70;44.90;70.03;;
77133;Laerm;26708;50.304;19.028;2023-05-23T10:48:00;56.96;44.15;68.97;;
77133;Laerm;26708;50.304;19.028;2023-05-23T10:50:06;57.44;44.25;67.99;;
77133;Laerm;26708;50.304;19.028;2023-05-23T10:52:17;51.99;43.39;65.11;;
77133;Laerm;26708;50.304;19.028;2023-05-23T10:54:25;56.08;44.18;67.33;;
77133;Laerm;26708;50.304;19.028;2023-05-23T10:56:33;52.58;43.22;64.72;;
77133;Laerm;26708;50.304;19.028;2023-05-23T10:58:38;58.37;44.41;73.21;;
77133;Laerm;26708;50.304;19.028;2023-05-23T11:00:53;57.88;43.21;78.01;;
77133;Laerm;26708;50.304;19.028;2023-05-23T11:02:59;54.20;45.27;67.00;;
77133;Laerm;26708;50.304;19.028;2023-05-23T11:05:20;55.01;43.24;68.33;;
77133;Laerm;26708;50.304;19.028;2023-05-23T11:07:30;57.45;44.83;85.41;;
77133;Laerm;26708;50.304;19.028;2023-05-23T11:10:07;58.18;44.36;79.81;;
77133;Laerm;26708;50.304;19.028;2023-05-23T11:12:13;60.53;45.14;76.00;;
77133;Laerm;26708;50.304;19.028;2023-05-23T11:14:19;55.91;44.21;69.60;;
77133;Laerm;26708;50.304;19.028;2023-05-23T11:16:26;57.44;44.15;69.60;;
77133;Laerm;26708;50.304;19.028;2023-05-23T11:18:34;54.33;43.99;66.91;;
77133;Laerm;26708;50.304;19.028;2023-05-23T11:20:40;57.25;45.19;69.14;;
77133;Laerm;26708;50.304;19.028;2023-05-23T11:22:58;54.51;42.97;67.43;;
77133;Laerm;26708;50.304;19.028;2023-05-23T11:25:10;52.37;43.59;65.94;;
77133;Laerm;26708;50.304;19.028;2023-05-23T11:27:25;55.47;42.95;67.34;;
77133;Laerm;26708;50.304;19.028;2023-05-23T11:29:29;52.94;42.96;65.28;;
77133;Laerm;26708;50.304;19.028;2023-05-23T11:31:37;55.51;43.85;65.84;;
77133;Laerm;26708;50.304;19.028;2023-05-23T11:33:41;55.09;44.51;64.38;;
77133;Laerm;26708;50.304;19.028;2023-05-23T11:35:48;55.26;44.64;69.38;;
77133;Laerm;26708;50.304;19.028;2023-05-23T11:37:56;55.81;43.53;70.01;;
77133;Laerm;26708;50.304;19.028;2023-05-23T11:40:30;57.28;44.58;71.80;;
77133;Laerm;26708;50.304;19.028;2023-05-23T11:42:42;57.73;43.39;71.69;;
77133;Laerm;26708;50.304;19.028;2023-05-23T11:44:48;55.82;44.13;66.05;;
77133;Laerm;26708;50.304;19.028;2023-05-23T11:47:01;55.18;43.18;71.44;;
77133;Laerm;26708;50.304;19.028;2023-05-23T11:49:12;66.48;44.08;85.51;;
77133;Laerm;26708;50.304;19.028;2023-05-23T11:51:18;56.01;43.66;68.61;;
77133;Laerm;26708;50.304;19.028;2023-05-23T11:53:26;52.59;43.86;67.05;;
77133;Laerm;26708;50.304;19.028;2023-05-23T11:55:33;59.06;44.42;72.65;;
77133;Laerm;26708;50.304;19.028;2023-05-23T11:57:41;57.79;43.05;70.52;;
77133;Laerm;26708;50.304;19.028;2023-05-23T11:59:46;57.87;43.98;71.54;;
77133;Laerm;26708;50.304;19.028;2023-05-23T12:01:51;60.58;44.91;77.85;;
77133;Laerm;26708;50.304;19.028;2023-05-23T12:04:11;53.43;43.48;66.22;;
77133;Laerm;26708;50.304;19.028;2023-05-23T12:06:30;56.19;44.16;67.97;;
77133;Laerm;26708;50.304;19.028;2023-05-23T12:08:51;58.33;44.03;74.46;;
77133;Laerm;26708;50.304;19.028;2023-05-23T12:11:14;54.24;44.69;65.97;;
77133;Laerm;26708;50.304;19.028;2023-05-23T12:13:34;57.80;43.86;73.15;;